createdAt,value
2023-03-27T00:00:23.662Z,103
2023-03-27T00:01:29.921Z,103
2023-03-27T00:02:36.200Z,103
2023-03-27T00:03:42.471Z,102
2023-03-27T00:04:48.738Z,102
2023-03-27T00:05:55.004Z,102
2023-03-27T00:07:01.286Z,102
2023-03-27T00:08:06.579Z,102
2023-03-27T00:09:12.858Z,103
2023-03-27T00:10:18.147Z,103
2023-03-27T00:11:23.488Z,102
2023-03-27T00:12:29.711Z,102
2023-03-27T00:13:35.968Z,102
2023-03-27T00:14:42.276Z,102
2023-03-27T00:15:48.529Z,102
2023-03-27T00:16:54.800Z,102
2023-03-27T00:18:01.074Z,102
2023-03-27T00:19:07.346Z,102
2023-03-27T00:20:13.619Z,102
2023-03-27T00:21:19.886Z,102
2023-03-27T00:22:26.154Z,102
2023-03-27T00:23:32.431Z,103
2023-03-27T00:24:38.703Z,103
2023-03-27T00:25:43.989Z,103
2023-03-27T00:26:50.262Z,103
2023-03-27T00:27:56.537Z,103
2023-03-27T00:29:02.864Z,103
2023-03-27T00:30:09.085Z,102
2023-03-27T00:31:15.344Z,103
2023-03-27T00:32:21.641Z,103
2023-03-27T00:33:26.930Z,103
2023-03-27T00:34:32.203Z,103
2023-03-27T00:35:37.522Z,103
2023-03-27T00:36:42.799Z,103
2023-03-27T00:37:49.075Z,102
2023-03-27T00:38:55.356Z,103
2023-03-27T00:40:01.620Z,103
2023-03-27T00:41:07.900Z,102
2023-03-27T00:42:14.156Z,103
2023-03-27T00:43:20.434Z,102
2023-03-27T00:44:26.699Z,102
2023-03-27T00:45:32.976Z,102
2023-03-27T00:46:39.255Z,103
2023-03-27T00:47:45.519Z,102
2023-03-27T00:48:51.786Z,102
2023-03-27T00:49:58.071Z,103
2023-03-27T00:51:03.358Z,103
2023-03-27T00:52:09.649Z,103
2023-03-27T00:53:15.906Z,103
2023-03-27T00:54:22.170Z,103
2023-03-27T00:55:28.435Z,102
2023-03-27T00:56:34.710Z,103
2023-03-27T00:57:40.980Z,102
2023-03-27T00:58:46.278Z,102
2023-03-27T00:59:51.572Z,103
2023-03-27T01:00:57.853Z,103
2023-03-27T01:02:04.114Z,103
2023-03-27T01:03:09.414Z,103
2023-03-27T01:04:14.716Z,103
2023-03-27T01:05:20.977Z,102
2023-03-27T01:06:27.242Z,103
2023-03-27T01:07:33.512Z,103
2023-03-27T01:08:39.783Z,102
2023-03-27T01:09:46.059Z,103
2023-03-27T01:10:52.328Z,103
2023-03-27T01:11:58.608Z,102
2023-03-27T01:13:04.873Z,103
2023-03-27T01:14:11.148Z,103
2023-03-27T01:15:17.419Z,103
2023-03-27T01:16:23.706Z,102
2023-03-27T01:17:29.975Z,103
2023-03-27T01:18:35.251Z,102
2023-03-27T01:19:41.518Z,102
2023-03-27T01:20:47.782Z,102
2023-03-27T01:21:54.084Z,102
2023-03-27T01:23:00.336Z,102
2023-03-27T01:24:06.612Z,102
2023-03-27T01:25:12.881Z,102
2023-03-27T01:26:18.192Z,103
2023-03-27T01:27:23.469Z,103
2023-03-27T01:28:28.759Z,103
2023-03-27T01:29:34.058Z,102
2023-03-27T01:30:40.325Z,102
2023-03-27T01:31:46.613Z,102
2023-03-27T01:32:52.874Z,103
2023-03-27T01:33:59.144Z,103
2023-03-27T01:35:05.410Z,103
2023-03-27T01:36:11.695Z,103
2023-03-27T01:37:17.964Z,103
2023-03-27T01:38:24.241Z,103
2023-03-27T01:39:30.505Z,103
2023-03-27T01:40:36.796Z,102
2023-03-27T01:41:43.052Z,103
2023-03-27T01:42:49.326Z,102
2023-03-27T01:43:54.608Z,102
2023-03-27T01:45:00.880Z,102
2023-03-27T01:46:07.152Z,103
2023-03-27T01:47:13.423Z,102
2023-03-27T01:48:19.706Z,102
2023-03-27T01:49:25.966Z,103
2023-03-27T01:50:32.243Z,103
2023-03-27T01:51:37.551Z,103
2023-03-27T01:52:43.817Z,103
2023-03-27T01:53:49.116Z,102
2023-03-27T01:54:54.408Z,103
2023-03-27T01:56:00.682Z,102
2023-03-27T01:57:07.070Z,102
2023-03-27T01:58:13.227Z,103
2023-03-27T01:59:19.489Z,103
2023-03-27T02:00:25.763Z,103
2023-03-27T02:01:32.039Z,102
2023-03-27T02:02:38.310Z,103
2023-03-27T02:03:44.576Z,102
2023-03-27T02:04:50.866Z,102
2023-03-27T02:05:57.120Z,102
2023-03-27T02:07:03.407Z,102
2023-03-27T02:08:09.675Z,102
2023-03-27T02:09:14.951Z,102
2023-03-27T02:10:21.232Z,102
2023-03-27T02:11:27.509Z,102
2023-03-27T02:12:33.779Z,102
2023-03-27T02:13:40.047Z,102
2023-03-27T02:14:46.312Z,103
2023-03-27T02:15:52.593Z,103
2023-03-27T02:16:57.907Z,102
2023-03-27T02:18:04.165Z,102
2023-03-27T02:19:09.451Z,102
2023-03-27T02:20:14.912Z,102
2023-03-27T02:21:21.048Z,102
2023-03-27T02:22:26.316Z,102
2023-03-27T02:23:32.581Z,103
2023-03-27T02:24:38.862Z,102
2023-03-27T02:25:45.125Z,103
2023-03-27T02:26:51.403Z,102
2023-03-27T02:27:57.684Z,103
2023-03-27T02:29:03.935Z,103
2023-03-27T02:30:10.220Z,103
2023-03-27T02:31:16.487Z,102
2023-03-27T02:32:22.757Z,103
2023-03-27T02:33:29.033Z,102
2023-03-27T02:34:35.300Z,102
2023-03-27T02:35:41.577Z,103
2023-03-27T02:36:47.848Z,103
2023-03-27T02:37:53.139Z,102
2023-03-27T02:38:59.406Z,102
2023-03-27T02:40:05.679Z,102
2023-03-27T02:41:11.952Z,103
2023-03-27T02:42:18.224Z,102
2023-03-27T02:43:23.527Z,102
2023-03-27T02:44:28.813Z,103
2023-03-27T02:45:35.083Z,102
2023-03-27T02:46:40.386Z,102
2023-03-27T02:47:46.653Z,102
2023-03-27T02:48:51.943Z,103
2023-03-27T02:49:58.213Z,102
2023-03-27T02:51:04.498Z,102
2023-03-27T02:52:10.770Z,102
2023-03-27T02:53:17.038Z,103
2023-03-27T02:54:23.307Z,103
2023-03-27T02:55:29.579Z,102
2023-03-27T02:56:35.848Z,103
2023-03-27T02:57:42.126Z,102
2023-03-27T02:58:48.394Z,102
2023-03-27T02:59:54.675Z,102
2023-03-27T03:01:00.935Z,103
2023-03-27T03:02:07.214Z,103
2023-03-27T03:03:12.505Z,102
2023-03-27T03:04:18.776Z,102
2023-03-27T03:05:25.049Z,102
2023-03-27T03:06:31.321Z,103
2023-03-27T03:07:37.590Z,102
2023-03-27T03:08:43.857Z,103
2023-03-27T03:09:49.166Z,103
2023-03-27T03:10:54.446Z,103
2023-03-27T03:11:59.755Z,102
2023-03-27T03:13:05.050Z,103
2023-03-27T03:14:11.307Z,102
2023-03-27T03:15:17.571Z,103
2023-03-27T03:16:23.853Z,102
2023-03-27T03:17:30.129Z,102
2023-03-27T03:18:36.403Z,103
2023-03-27T03:19:42.675Z,102
2023-03-27T03:20:48.938Z,102
2023-03-27T03:21:55.217Z,102
2023-03-27T03:23:01.507Z,103
2023-03-27T03:24:07.782Z,103
2023-03-27T03:25:14.041Z,102
2023-03-27T03:26:20.307Z,103
2023-03-27T03:27:25.593Z,102
2023-03-27T03:28:31.869Z,103
2023-03-27T03:29:38.153Z,103
2023-03-27T03:30:44.403Z,102
2023-03-27T03:31:50.681Z,102
2023-03-27T03:32:56.959Z,103
2023-03-27T03:34:03.253Z,102
2023-03-27T03:35:08.536Z,103
2023-03-27T03:36:13.823Z,103
2023-03-27T03:37:19.115Z,103
2023-03-27T03:38:24.402Z,102
2023-03-27T03:39:30.669Z,103
2023-03-27T03:40:35.964Z,103
2023-03-27T03:41:42.247Z,102
2023-03-27T03:42:48.517Z,102
2023-03-27T03:43:54.783Z,102
2023-03-27T03:45:01.061Z,102
2023-03-27T03:46:07.326Z,102
2023-03-27T03:47:13.611Z,102
2023-03-27T03:48:19.880Z,102
2023-03-27T03:49:26.142Z,103
2023-03-27T03:50:32.416Z,102
2023-03-27T03:51:38.683Z,102
2023-03-27T03:52:44.960Z,102
2023-03-27T03:53:51.236Z,103
2023-03-27T03:54:56.529Z,103
2023-03-27T03:56:02.785Z,102
2023-03-27T03:57:09.061Z,102
2023-03-27T03:58:15.329Z,102
2023-03-27T03:59:21.608Z,103
2023-03-27T04:00:26.906Z,102
2023-03-27T04:01:32.206Z,103
2023-03-27T04:02:38.471Z,103
2023-03-27T04:03:43.768Z,102
2023-03-27T04:04:49.056Z,102
2023-03-27T04:05:55.320Z,103
2023-03-27T04:07:01.614Z,103
2023-03-27T04:08:07.867Z,102
2023-03-27T04:09:14.127Z,102
2023-03-27T04:10:20.415Z,103
2023-03-27T04:11:26.691Z,102
2023-03-27T04:12:32.966Z,103
2023-03-27T04:13:39.230Z,103
2023-03-27T04:14:45.507Z,103
2023-03-27T04:15:51.774Z,102
2023-03-27T04:16:58.052Z,103
2023-03-27T04:18:04.421Z,102
2023-03-27T04:19:09.610Z,103
2023-03-27T04:20:15.890Z,102
2023-03-27T04:21:22.157Z,103
2023-03-27T04:22:28.425Z,102
2023-03-27T04:23:34.702Z,102
2023-03-27T04:24:40.970Z,103
2023-03-27T04:25:47.265Z,102
2023-03-27T04:26:52.568Z,102
2023-03-27T04:27:57.828Z,103
2023-03-27T04:29:04.177Z,103
2023-03-27T04:30:10.371Z,102
2023-03-27T04:31:16.649Z,103
2023-03-27T04:32:22.977Z,103
2023-03-27T04:33:29.197Z,103
2023-03-27T04:34:35.484Z,103
2023-03-27T04:35:41.735Z,103
2023-03-27T04:36:48.019Z,103
2023-03-27T04:37:54.288Z,103
2023-03-27T04:39:00.558Z,103
2023-03-27T04:40:06.832Z,102
2023-03-27T04:41:13.099Z,103
2023-03-27T04:42:18.391Z,103
2023-03-27T04:43:24.684Z,102
2023-03-27T04:44:30.941Z,103
2023-03-27T04:45:37.210Z,103
2023-03-27T04:46:43.484Z,103
2023-03-27T04:47:49.778Z,103
2023-03-27T04:48:56.029Z,102
2023-03-27T04:50:01.321Z,103
2023-03-27T04:51:06.636Z,102
2023-03-27T04:52:11.921Z,103
2023-03-27T04:53:17.198Z,102
2023-03-27T04:54:23.508Z,103
2023-03-27T04:55:29.750Z,102
2023-03-27T04:56:36.025Z,103
2023-03-27T04:57:42.302Z,102
2023-03-27T04:58:48.566Z,103
2023-03-27T04:59:54.841Z,102
2023-03-27T05:01:01.142Z,103
2023-03-27T05:02:07.388Z,102
2023-03-27T05:03:13.655Z,103
2023-03-27T05:04:19.927Z,102
2023-03-27T05:05:26.204Z,103
2023-03-27T05:06:32.509Z,102
2023-03-27T05:07:38.877Z,103
2023-03-27T05:08:45.140Z,102
2023-03-27T05:09:51.414Z,103
2023-03-27T05:10:57.693Z,103
2023-03-27T05:12:03.962Z,102
2023-03-27T05:13:10.230Z,103
2023-03-27T05:14:16.495Z,102
2023-03-27T05:15:21.808Z,102
2023-03-27T05:16:27.096Z,102
2023-03-27T05:17:32.393Z,103
2023-03-27T05:18:37.692Z,102
2023-03-27T05:19:43.947Z,103
2023-03-27T05:20:50.245Z,102
2023-03-27T05:21:56.498Z,103
2023-03-27T05:23:02.775Z,103
2023-03-27T05:24:09.063Z,103
2023-03-27T05:25:15.313Z,103
2023-03-27T05:26:21.587Z,102
2023-03-27T05:27:27.855Z,103
2023-03-27T05:28:34.124Z,102
2023-03-27T05:29:40.432Z,103
2023-03-27T05:30:46.677Z,102
2023-03-27T05:31:53.008Z,102
2023-03-27T05:32:58.241Z,103
2023-03-27T05:34:04.514Z,102
2023-03-27T05:35:10.783Z,102
2023-03-27T05:36:17.056Z,102
2023-03-27T05:37:23.328Z,103
2023-03-27T05:38:29.614Z,102
2023-03-27T05:39:35.872Z,102
2023-03-27T05:40:41.182Z,103
2023-03-27T05:41:46.463Z,103
2023-03-27T05:42:51.804Z,102
2023-03-27T05:43:57.056Z,102
2023-03-27T05:45:03.319Z,102
2023-03-27T05:46:09.602Z,102
2023-03-27T05:47:15.869Z,102
2023-03-27T05:48:22.132Z,102
2023-03-27T05:49:28.410Z,103
2023-03-27T05:50:34.692Z,102
2023-03-27T05:51:40.971Z,102
2023-03-27T05:52:47.218Z,102
2023-03-27T05:53:53.495Z,103
2023-03-27T05:54:59.759Z,102
2023-03-27T05:56:06.068Z,102
2023-03-27T05:57:12.314Z,102
2023-03-27T05:58:17.609Z,103
2023-03-27T05:59:23.885Z,103
2023-03-27T06:00:30.155Z,103
2023-03-27T06:01:36.424Z,103
2023-03-27T06:02:42.700Z,102
2023-03-27T06:03:48.972Z,102
2023-03-27T06:04:55.251Z,102
2023-03-27T06:06:00.572Z,103
2023-03-27T06:07:05.857Z,103
2023-03-27T06:08:11.142Z,102
2023-03-27T06:09:16.498Z,103
2023-03-27T06:10:22.694Z,103
2023-03-27T06:11:28.971Z,103
2023-03-27T06:12:35.239Z,103
2023-03-27T06:13:41.561Z,102
2023-03-27T06:14:47.773Z,103
2023-03-27T06:15:54.091Z,102
2023-03-27T06:17:00.361Z,102
2023-03-27T06:18:06.596Z,103
2023-03-27T06:19:12.874Z,102
2023-03-27T06:20:19.175Z,102
2023-03-27T06:21:25.414Z,102
2023-03-27T06:22:31.691Z,103
2023-03-27T06:23:36.977Z,103
2023-03-27T06:24:43.255Z,102
2023-03-27T06:25:49.518Z,103
2023-03-27T06:26:55.807Z,102
2023-03-27T06:28:02.073Z,103
2023-03-27T06:29:08.349Z,103
2023-03-27T06:30:14.706Z,102
2023-03-27T06:31:19.909Z,102
2023-03-27T06:32:25.198Z,102
2023-03-27T06:33:31.491Z,102
2023-03-27T06:34:36.766Z,102
2023-03-27T06:35:42.061Z,102
2023-03-27T06:36:48.335Z,102
2023-03-27T06:37:54.624Z,102
2023-03-27T06:39:00.882Z,103
2023-03-27T06:40:07.182Z,103
2023-03-27T06:41:13.427Z,103
2023-03-27T06:42:19.697Z,103
2023-03-27T06:43:25.977Z,103
2023-03-27T06:44:32.243Z,102
2023-03-27T06:45:38.519Z,103
2023-03-27T06:46:44.800Z,103
2023-03-27T06:47:51.061Z,102
2023-03-27T06:48:57.360Z,102
2023-03-27T06:50:02.649Z,102
2023-03-27T06:51:08.914Z,102
2023-03-27T06:52:15.397Z,102
2023-03-27T06:53:21.482Z,103
2023-03-27T06:54:27.781Z,103
2023-03-27T06:55:33.993Z,102
2023-03-27T06:56:40.254Z,103
2023-03-27T06:57:45.574Z,102
2023-03-27T06:58:50.838Z,102
2023-03-27T06:59:56.148Z,103
2023-03-27T07:01:01.443Z,102
2023-03-27T07:02:07.797Z,102
2023-03-27T07:03:13.993Z,102
2023-03-27T07:04:20.308Z,103
2023-03-27T07:05:26.582Z,102
2023-03-27T07:06:32.944Z,102
2023-03-27T07:07:39.069Z,102
2023-03-27T07:08:45.331Z,102
2023-03-27T07:09:51.609Z,103
2023-03-27T07:10:57.940Z,102
2023-03-27T07:12:04.147Z,103
2023-03-27T07:13:10.436Z,103
2023-03-27T07:14:16.698Z,102
2023-03-27T07:15:21.995Z,103
2023-03-27T07:16:28.254Z,102
2023-03-27T07:17:34.526Z,102
2023-03-27T07:18:40.818Z,103
2023-03-27T07:19:47.078Z,103
2023-03-27T07:20:53.341Z,102
2023-03-27T07:21:58.641Z,102
2023-03-27T07:23:03.950Z,102
2023-03-27T07:24:09.255Z,103
2023-03-27T07:25:14.532Z,102
2023-03-27T07:26:19.813Z,102
2023-03-27T07:27:26.088Z,103
2023-03-27T07:28:32.360Z,103
2023-03-27T07:29:38.632Z,103
2023-03-27T07:30:44.909Z,102
2023-03-27T07:31:51.179Z,103
2023-03-27T07:32:57.453Z,103
2023-03-27T07:34:03.715Z,102
2023-03-27T07:35:10.010Z,103
2023-03-27T07:36:16.276Z,102
2023-03-27T07:37:22.672Z,102
2023-03-27T07:38:29.020Z,102
2023-03-27T07:39:35.178Z,102
2023-03-27T07:40:40.453Z,102
2023-03-27T07:41:46.694Z,103
2023-03-27T07:42:52.952Z,102
2023-03-27T07:43:59.196Z,103
2023-03-27T07:45:05.485Z,102
2023-03-27T07:46:11.777Z,102
2023-03-27T07:47:18.009Z,103
2023-03-27T07:48:24.374Z,102
2023-03-27T07:49:29.635Z,103
2023-03-27T07:50:34.879Z,102
2023-03-27T07:51:41.151Z,102
2023-03-27T07:52:47.598Z,103
2023-03-27T07:53:53.809Z,102
2023-03-27T07:54:59.963Z,103
2023-03-27T07:56:06.293Z,102
2023-03-27T07:57:12.510Z,102
2023-03-27T07:58:18.782Z,103
2023-03-27T07:59:25.069Z,103
2023-03-27T08:00:31.499Z,102
2023-03-27T08:01:37.811Z,103
2023-03-27T08:02:44.014Z,102
2023-03-27T08:03:50.146Z,102
2023-03-27T08:04:55.436Z,103
2023-03-27T08:06:01.709Z,102
2023-03-27T08:07:07.989Z,103
2023-03-27T08:08:14.269Z,103
2023-03-27T08:09:20.527Z,102
2023-03-27T08:10:26.806Z,102
2023-03-27T08:11:33.091Z,103
2023-03-27T08:12:38.362Z,103
2023-03-27T08:13:43.655Z,102
2023-03-27T08:14:48.972Z,102
2023-03-27T08:15:54.273Z,103
2023-03-27T08:16:59.542Z,102
2023-03-27T08:18:04.831Z,103
2023-03-27T08:19:11.094Z,103
2023-03-27T08:20:17.373Z,102
2023-03-27T08:21:23.651Z,102
2023-03-27T08:22:29.948Z,103
2023-03-27T08:23:36.191Z,102
2023-03-27T08:24:42.525Z,102
2023-03-27T08:25:48.787Z,102
2023-03-27T08:26:55.025Z,102
2023-03-27T08:28:01.279Z,103
2023-03-27T08:29:07.555Z,102
2023-03-27T08:30:13.817Z,102
2023-03-27T08:31:20.095Z,102
2023-03-27T08:32:25.395Z,102
2023-03-27T08:33:31.657Z,102
2023-03-27T08:34:37.944Z,102
2023-03-27T08:35:44.205Z,102
2023-03-27T08:36:50.515Z,103
2023-03-27T08:37:56.751Z,102
2023-03-27T08:39:03.018Z,103
2023-03-27T08:40:08.311Z,102
2023-03-27T08:41:13.608Z,102
2023-03-27T08:42:19.876Z,103
2023-03-27T08:43:26.150Z,103
2023-03-27T08:44:31.476Z,103
2023-03-27T08:45:36.767Z,103
2023-03-27T08:47:49.293Z,102
2023-03-27T08:48:55.588Z,102
2023-03-27T08:50:01.831Z,102
2023-03-27T08:51:08.108Z,102
2023-03-27T08:52:14.386Z,103
2023-03-27T08:53:20.649Z,103
2023-03-27T08:54:26.926Z,103
2023-03-27T08:55:33.200Z,103
2023-03-27T08:56:39.466Z,103
2023-03-27T08:57:45.731Z,103
2023-03-27T08:58:52.096Z,103
2023-03-27T08:59:57.309Z,103
2023-03-27T09:01:03.570Z,102
2023-03-27T09:02:09.848Z,103
2023-03-27T09:03:16.133Z,103
2023-03-27T09:04:22.417Z,103
2023-03-27T09:05:28.658Z,103
2023-03-27T09:06:34.939Z,102
2023-03-27T09:07:41.228Z,102
2023-03-27T09:08:46.510Z,103
2023-03-27T09:09:51.782Z,103
2023-03-27T09:10:57.100Z,103
2023-03-27T09:12:02.377Z,102
2023-03-27T09:13:08.656Z,102
2023-03-27T09:14:14.954Z,102
2023-03-27T09:16:27.473Z,103
2023-03-27T09:17:33.765Z,102
2023-03-27T09:18:40.020Z,103
2023-03-27T09:19:46.285Z,102
2023-03-27T09:20:52.563Z,103
2023-03-27T09:21:58.831Z,102
2023-03-27T09:23:05.136Z,103
2023-03-27T09:24:11.387Z,103
2023-03-27T09:25:17.657Z,103
2023-03-27T09:26:22.935Z,103
2023-03-27T09:27:29.211Z,102
2023-03-27T09:28:35.474Z,103
2023-03-27T09:29:41.756Z,103
2023-03-27T09:30:48.031Z,103
2023-03-27T09:31:54.336Z,102
2023-03-27T09:33:00.575Z,102
2023-03-27T09:34:06.842Z,103
2023-03-27T09:35:12.140Z,102
2023-03-27T09:36:17.452Z,103
2023-03-27T09:37:23.700Z,103
2023-03-27T09:38:29.010Z,103
2023-03-27T09:39:34.288Z,103
2023-03-27T09:40:40.564Z,102
2023-03-27T09:41:46.843Z,102
2023-03-27T09:42:53.108Z,103
2023-03-27T09:43:59.377Z,103
2023-03-27T09:45:05.654Z,103
2023-03-27T09:46:11.916Z,102
2023-03-27T09:47:18.203Z,103
2023-03-27T09:48:24.468Z,102
2023-03-27T09:49:30.752Z,102
2023-03-27T09:50:37.014Z,103
2023-03-27T09:51:43.280Z,102
2023-03-27T09:52:49.559Z,102
2023-03-27T09:53:54.865Z,103
2023-03-27T09:55:01.129Z,103
2023-03-27T09:56:07.410Z,102
2023-03-27T09:57:13.667Z,103
2023-03-27T09:58:20.118Z,102
2023-03-27T09:59:26.348Z,103
2023-03-27T10:00:32.476Z,103
2023-03-27T10:01:37.782Z,103
2023-03-27T10:02:43.067Z,103
2023-03-27T10:03:48.389Z,103
2023-03-27T10:04:53.676Z,103
2023-03-27T10:05:59.942Z,102
2023-03-27T10:07:06.206Z,103
2023-03-27T10:08:12.478Z,103
2023-03-27T10:09:18.747Z,102
2023-03-27T10:10:25.019Z,102
2023-03-27T10:11:31.291Z,102
2023-03-27T10:12:37.573Z,103
2023-03-27T10:13:43.835Z,103
2023-03-27T10:14:50.132Z,103
2023-03-27T10:15:56.378Z,103
2023-03-27T10:17:02.667Z,103
2023-03-27T10:18:08.947Z,102
2023-03-27T10:19:14.216Z,102
2023-03-27T10:20:20.502Z,102
2023-03-27T10:21:26.808Z,103
2023-03-27T10:22:33.031Z,103
2023-03-27T10:23:39.311Z,102
2023-03-27T10:24:45.594Z,102
2023-03-27T10:25:51.845Z,103
2023-03-27T10:26:58.126Z,102
2023-03-27T10:28:03.422Z,102
2023-03-27T10:29:08.715Z,103
2023-03-27T10:30:14.973Z,102
2023-03-27T10:31:21.261Z,103
2023-03-27T10:32:26.548Z,102
2023-03-27T10:33:32.820Z,102
2023-03-27T10:34:38.117Z,103
2023-03-27T10:35:44.385Z,102
2023-03-27T10:36:50.682Z,102
2023-03-27T10:37:57.017Z,102
2023-03-27T10:39:03.372Z,103
2023-03-27T10:40:09.635Z,102
2023-03-27T10:41:15.783Z,103
2023-03-27T10:42:22.141Z,102
2023-03-27T10:43:28.362Z,102
2023-03-27T10:44:34.717Z,103
2023-03-27T10:45:40.915Z,103
2023-03-27T10:46:47.277Z,102
2023-03-27T10:47:53.371Z,102
2023-03-27T10:48:58.680Z,103
2023-03-27T10:50:04.992Z,102
2023-03-27T10:51:11.236Z,102
2023-03-27T10:52:17.539Z,103
2023-03-27T10:53:23.755Z,102
2023-03-27T10:54:30.026Z,103
2023-03-27T10:55:35.321Z,103
2023-03-27T10:56:41.629Z,103
2023-03-27T10:57:46.948Z,102
2023-03-27T10:58:53.377Z,103
2023-03-27T10:59:59.541Z,102
2023-03-27T11:01:05.708Z,103
2023-03-27T11:02:11.005Z,102
2023-03-27T11:03:16.334Z,100
2023-03-27T11:04:22.579Z,102
2023-03-27T11:05:29.053Z,100
2023-03-27T11:06:35.206Z,96
2023-03-27T11:07:41.377Z,99
2023-03-27T11:08:47.642Z,95
2023-03-27T11:09:53.914Z,91
2023-03-27T11:11:00.181Z,92
2023-03-27T11:12:06.452Z,91
2023-03-27T11:13:12.733Z,90
2023-03-27T11:14:19.035Z,93
2023-03-27T11:15:25.336Z,96
2023-03-27T11:16:31.533Z,93
2023-03-27T11:17:36.832Z,90
2023-03-27T11:18:43.109Z,88
2023-03-27T11:19:49.374Z,92
2023-03-27T11:20:55.632Z,92
2023-03-27T11:22:01.914Z,92
2023-03-27T11:23:08.187Z,93
2023-03-27T11:24:14.460Z,92
2023-03-27T11:25:19.770Z,95
2023-03-27T11:26:25.051Z,92
2023-03-27T11:27:31.323Z,92
2023-03-27T11:28:36.616Z,91
2023-03-27T11:29:41.921Z,91
2023-03-27T11:30:48.169Z,88
2023-03-27T11:31:54.451Z,88
2023-03-27T11:33:00.722Z,88
2023-03-27T11:34:06.988Z,86
2023-03-27T11:35:13.263Z,87
2023-03-27T11:36:19.529Z,86
2023-03-27T11:37:25.803Z,86
2023-03-27T11:38:32.074Z,88
2023-03-27T11:39:38.356Z,95
2023-03-27T11:40:44.619Z,92
2023-03-27T11:41:50.961Z,88
2023-03-27T11:42:57.164Z,85
2023-03-27T11:44:02.483Z,84
2023-03-27T11:45:08.730Z,85
2023-03-27T11:46:15.001Z,85
2023-03-27T11:47:21.293Z,86
2023-03-27T11:48:27.544Z,87
2023-03-27T11:49:33.813Z,89
2023-03-27T11:50:40.093Z,86
2023-03-27T11:51:45.383Z,84
2023-03-27T11:52:50.673Z,91
2023-03-27T11:53:56.962Z,96
2023-03-27T11:55:02.256Z,90
2023-03-27T11:56:07.533Z,90
2023-03-27T11:57:13.811Z,90
2023-03-27T11:58:20.083Z,88
2023-03-27T11:59:26.353Z,85
2023-03-27T12:01:38.897Z,84
2023-03-27T12:02:45.173Z,85
2023-03-27T12:03:51.444Z,84
2023-03-27T12:04:57.709Z,84
2023-03-27T12:06:03.976Z,84
2023-03-27T12:07:10.274Z,82
2023-03-27T12:08:16.519Z,79
2023-03-27T12:09:22.827Z,81
2023-03-27T12:10:28.084Z,82
2023-03-27T12:11:34.349Z,83
2023-03-27T12:12:40.632Z,84
2023-03-27T12:13:46.893Z,83
2023-03-27T12:14:53.193Z,85
2023-03-27T12:15:59.439Z,84
2023-03-27T12:17:05.720Z,80
2023-03-27T12:18:11.986Z,80
2023-03-27T12:19:18.264Z,82
2023-03-27T12:20:24.528Z,82
2023-03-27T12:21:30.801Z,81
2023-03-27T12:22:37.064Z,83
2023-03-27T12:23:43.335Z,83
2023-03-27T12:24:48.644Z,82
2023-03-27T12:25:53.932Z,81
2023-03-27T12:26:59.231Z,84
2023-03-27T12:28:04.513Z,81
2023-03-27T12:29:10.788Z,78
2023-03-27T12:30:17.093Z,79
2023-03-27T12:31:23.373Z,80
2023-03-27T12:32:29.606Z,82
2023-03-27T12:33:35.877Z,84
2023-03-27T12:34:42.146Z,83
2023-03-27T12:35:48.417Z,84
2023-03-27T12:36:54.726Z,83
2023-03-27T12:38:00.966Z,87
2023-03-27T12:39:07.243Z,84
2023-03-27T12:40:13.488Z,82
2023-03-27T12:41:19.779Z,83
2023-03-27T12:42:25.075Z,87
2023-03-27T12:43:31.355Z,84
2023-03-27T12:44:37.634Z,82
2023-03-27T12:45:43.879Z,82
2023-03-27T12:46:50.156Z,81
2023-03-27T12:47:56.429Z,83
2023-03-27T12:49:02.697Z,82
2023-03-27T12:50:07.993Z,81
2023-03-27T12:51:14.250Z,79
2023-03-27T12:52:19.557Z,80
2023-03-27T12:53:25.844Z,79
2023-03-27T12:54:32.096Z,80
2023-03-27T12:55:38.372Z,80
2023-03-27T12:56:44.649Z,80
2023-03-27T12:57:50.942Z,78
2023-03-27T12:58:57.183Z,79
2023-03-27T13:00:03.541Z,79
2023-03-27T13:01:09.721Z,80
2023-03-27T13:02:15.998Z,81
2023-03-27T13:03:22.267Z,79
2023-03-27T13:04:28.542Z,81
2023-03-27T13:05:34.832Z,78
2023-03-27T13:06:41.081Z,80
2023-03-27T13:07:47.345Z,80
2023-03-27T13:08:52.669Z,78
2023-03-27T13:09:58.929Z,78
2023-03-27T13:11:05.195Z,76
2023-03-27T13:12:11.463Z,79
2023-03-27T13:13:16.765Z,81
2023-03-27T13:14:22.045Z,76
2023-03-27T13:15:27.344Z,78
2023-03-27T13:16:32.636Z,76
2023-03-27T13:17:38.898Z,77
2023-03-27T13:18:45.227Z,78
2023-03-27T13:19:51.451Z,82
2023-03-27T13:20:57.722Z,81
2023-03-27T13:22:03.995Z,79
2023-03-27T13:23:10.262Z,79
2023-03-27T13:24:16.526Z,79
2023-03-27T13:25:22.807Z,79
2023-03-27T13:26:29.082Z,76
2023-03-27T13:27:35.350Z,75
2023-03-27T13:28:41.647Z,74
2023-03-27T13:29:47.969Z,76
2023-03-27T13:30:53.231Z,77
2023-03-27T13:31:59.451Z,77
2023-03-27T13:33:05.762Z,76
2023-03-27T13:34:12.021Z,76
2023-03-27T13:35:18.277Z,76
2023-03-27T13:36:24.565Z,78
2023-03-27T13:37:30.820Z,77
2023-03-27T13:38:36.110Z,75
2023-03-27T13:39:41.460Z,77
2023-03-27T13:40:47.687Z,81
2023-03-27T13:41:52.973Z,82
2023-03-27T13:42:58.269Z,86
2023-03-27T13:44:04.536Z,86
2023-03-27T13:45:10.805Z,88
2023-03-27T13:46:17.071Z,86
2023-03-27T13:47:23.352Z,88
2023-03-27T13:48:29.612Z,85
2023-03-27T13:49:35.899Z,83
2023-03-27T13:50:42.160Z,82
2023-03-27T13:51:48.472Z,78
2023-03-27T13:52:54.710Z,85
2023-03-27T13:54:00.977Z,76
2023-03-27T13:55:07.265Z,76
2023-03-27T13:56:13.521Z,78
2023-03-27T13:57:18.816Z,76
2023-03-27T13:58:25.078Z,78
2023-03-27T13:59:31.351Z,81
2023-03-27T14:00:37.632Z,83
2023-03-27T14:01:43.896Z,80
2023-03-27T14:02:50.174Z,79
2023-03-27T14:03:56.442Z,77
2023-03-27T14:05:01.741Z,76
2023-03-27T14:06:07.038Z,77
2023-03-27T14:07:13.294Z,81
2023-03-27T14:08:19.603Z,86
2023-03-27T14:09:25.843Z,84
2023-03-27T14:10:32.114Z,77
2023-03-27T14:11:38.384Z,75
2023-03-27T14:12:44.650Z,75
2023-03-27T14:13:50.982Z,76
2023-03-27T14:14:57.194Z,76
2023-03-27T14:16:03.513Z,75
2023-03-27T14:17:09.739Z,78
2023-03-27T14:18:16.017Z,78
2023-03-27T14:19:22.286Z,75
2023-03-27T14:20:27.564Z,75
2023-03-27T14:21:33.849Z,75
2023-03-27T14:22:40.116Z,74
2023-03-27T14:23:46.392Z,74
2023-03-27T14:24:52.664Z,73
2023-03-27T14:25:58.961Z,75
2023-03-27T14:27:05.257Z,76
2023-03-27T14:28:10.507Z,75
2023-03-27T14:29:16.774Z,73
2023-03-27T14:30:22.098Z,74
2023-03-27T14:31:27.366Z,74
2023-03-27T14:32:32.677Z,75
2023-03-27T14:33:37.988Z,74
2023-03-27T14:34:43.238Z,75
2023-03-27T14:35:49.525Z,75
2023-03-27T14:36:55.787Z,79
2023-03-27T14:38:02.057Z,75
2023-03-27T14:39:08.315Z,75
2023-03-27T14:40:14.623Z,74
2023-03-27T14:41:20.891Z,73
2023-03-27T14:42:27.140Z,74
2023-03-27T14:43:33.438Z,75
2023-03-27T14:44:38.716Z,76
2023-03-27T14:45:45.077Z,79
2023-03-27T14:46:51.255Z,80
2023-03-27T14:47:57.521Z,77
2023-03-27T14:49:03.806Z,78
2023-03-27T14:50:10.067Z,80
2023-03-27T14:51:16.340Z,81
2023-03-27T14:52:22.612Z,80
2023-03-27T14:53:28.880Z,83
2023-03-27T14:54:35.154Z,86
2023-03-27T14:55:41.432Z,93
2023-03-27T14:56:46.726Z,90
2023-03-27T14:57:52.017Z,93
2023-03-27T14:58:58.285Z,92
2023-03-27T15:00:04.562Z,98
2023-03-27T15:01:10.837Z,100
2023-03-27T15:02:17.098Z,103
2023-03-27T15:03:23.406Z,102
2023-03-27T15:04:29.658Z,103
2023-03-27T15:05:35.925Z,102
2023-03-27T15:06:42.198Z,102
2023-03-27T15:07:48.463Z,102
2023-03-27T15:08:54.742Z,102
2023-03-27T15:10:01.008Z,102
2023-03-27T15:11:07.285Z,102
2023-03-27T15:12:12.609Z,103
2023-03-27T15:13:18.837Z,102
2023-03-27T15:14:25.107Z,103
2023-03-27T15:15:31.385Z,102
2023-03-27T15:16:37.672Z,103
2023-03-27T15:17:43.939Z,103
2023-03-27T15:18:50.209Z,103
2023-03-27T15:19:55.501Z,102
2023-03-27T15:21:00.920Z,100